sensor_id;sensor_type;location;lat;lon;timestamp;P1;durP1;ratioP1;P2;durP2;ratioP2
57291;SDS011;43144;50.972;18.220;2022-08-19T00:00:03;8.50;;;7.20;;
57291;SDS011;43144;50.972;18.220;2022-08-19T00:02:32;8.00;;;7.30;;
57291;SDS011;43144;50.972;18.220;2022-08-19T00:05:01;8.00;;;7.20;;
57291;SDS011;43144;50.972;18.220;2022-08-19T00:07:29;8.20;;;7.60;;
57291;SDS011;43144;50.972;18.220;2022-08-19T00:09:58;8.50;;;7.70;;
57291;SDS011;43144;50.972;18.220;2022-08-19T00:12:26;8.60;;;7.90;;
57291;SDS011;43144;50.972;18.220;2022-08-19T00:14:54;8.40;;;7.80;;
57291;SDS011;43144;50.972;18.220;2022-08-19T00:17:22;8.50;;;7.90;;
57291;SDS011;43144;50.972;18.220;2022-08-19T00:19:51;8.60;;;7.80;;
57291;SDS011;43144;50.972;18.220;2022-08-19T00:22:19;9.00;;;7.60;;
57291;SDS011;43144;50.972;18.220;2022-08-19T00:24:47;8.70;;;8.00;;
57291;SDS011;43144;50.972;18.220;2022-08-19T00:27:15;9.10;;;8.30;;
57291;SDS011;43144;50.972;18.220;2022-08-19T00:29:43;9.10;;;8.50;;
57291;SDS011;43144;50.972;18.220;2022-08-19T00:32:14;9.40;;;8.50;;
57291;SDS011;43144;50.972;18.220;2022-08-19T00:34:42;8.70;;;8.00;;
57291;SDS011;43144;50.972;18.220;2022-08-19T00:37:11;8.60;;;7.90;;
57291;SDS011;43144;50.972;18.220;2022-08-19T00:39:39;9.50;;;8.40;;
57291;SDS011;43144;50.972;18.220;2022-08-19T00:42:07;9.30;;;8.60;;
57291;SDS011;43144;50.972;18.220;2022-08-19T00:44:35;9.00;;;8.40;;
57291;SDS011;43144;50.972;18.220;2022-08-19T00:47:04;9.60;;;8.70;;
57291;SDS011;43144;50.972;18.220;2022-08-19T00:49:33;8.90;;;8.20;;
57291;SDS011;43144;50.972;18.220;2022-08-19T00:52:04;9.00;;;8.30;;
57291;SDS011;43144;50.972;18.220;2022-08-19T00:54:34;9.40;;;8.70;;
57291;SDS011;43144;50.972;18.220;2022-08-19T00:57:03;9.80;;;9.00;;
57291;SDS011;43144;50.972;18.220;2022-08-19T00:59:36;10.20;;;9.30;;
57291;SDS011;43144;50.972;18.220;2022-08-19T01:02:07;10.00;;;9.10;;
57291;SDS011;43144;50.972;18.220;2022-08-19T01:04:35;9.90;;;8.20;;
57291;SDS011;43144;50.972;18.220;2022-08-19T01:07:03;9.40;;;8.60;;
57291;SDS011;43144;50.972;18.220;2022-08-19T01:09:32;9.50;;;8.70;;
57291;SDS011;43144;50.972;18.220;2022-08-19T01:12:01;9.50;;;8.80;;
57291;SDS011;43144;50.972;18.220;2022-08-19T01:14:30;9.80;;;9.10;;
57291;SDS011;43144;50.972;18.220;2022-08-19T01:16:58;9.70;;;9.00;;
57291;SDS011;43144;50.972;18.220;2022-08-19T01:19:28;9.70;;;8.80;;
57291;SDS011;43144;50.972;18.220;2022-08-19T01:21:59;9.70;;;8.80;;
57291;SDS011;43144;50.972;18.220;2022-08-19T01:24:30;10.30;;;9.30;;
57291;SDS011;43144;50.972;18.220;2022-08-19T01:26:58;11.00;;;9.90;;
57291;SDS011;43144;50.972;18.220;2022-08-19T01:29:26;10.40;;;9.50;;
57291;SDS011;43144;50.972;18.220;2022-08-19T01:31:54;10.40;;;9.60;;
57291;SDS011;43144;50.972;18.220;2022-08-19T01:34:23;9.90;;;9.10;;
57291;SDS011;43144;50.972;18.220;2022-08-19T01:36:51;11.00;;;9.90;;
57291;SDS011;43144;50.972;18.220;2022-08-19T01:39:20;10.40;;;9.50;;
57291;SDS011;43144;50.972;18.220;2022-08-19T01:41:50;10.60;;;9.80;;
57291;SDS011;43144;50.972;18.220;2022-08-19T01:44:18;10.40;;;9.30;;
57291;SDS011;43144;50.972;18.220;2022-08-19T01:46:47;10.40;;;9.50;;
57291;SDS011;43144;50.972;18.220;2022-08-19T01:49:17;10.20;;;9.40;;
57291;SDS011;43144;50.972;18.220;2022-08-19T01:51:47;10.60;;;9.70;;
57291;SDS011;43144;50.972;18.220;2022-08-19T01:54:16;11.20;;;10.30;;
57291;SDS011;43144;50.972;18.220;2022-08-19T01:56:46;10.30;;;9.50;;
57291;SDS011;43144;50.972;18.220;2022-08-19T01:59:15;10.50;;;9.70;;
57291;SDS011;43144;50.972;18.220;2022-08-19T02:01:45;11.50;;;9.80;;
57291;SDS011;43144;50.972;18.220;2022-08-19T02:04:13;10.50;;;9.70;;
57291;SDS011;43144;50.972;18.220;2022-08-19T02:06:41;11.60;;;10.40;;
57291;SDS011;43144;50.972;18.220;2022-08-19T02:09:10;11.00;;;10.00;;
57291;SDS011;43144;50.972;18.220;2022-08-19T02:11:38;10.00;;;9.20;;
57291;SDS011;43144;50.972;18.220;2022-08-19T02:14:07;10.50;;;9.50;;
57291;SDS011;43144;50.972;18.220;2022-08-19T02:16:36;11.20;;;10.30;;
57291;SDS011;43144;50.972;18.220;2022-08-19T02:19:04;11.70;;;10.80;;
57291;SDS011;43144;50.972;18.220;2022-08-19T02:21:32;11.60;;;10.50;;
57291;SDS011;43144;50.972;18.220;2022-08-19T02:24:01;10.70;;;9.80;;
57291;SDS011;43144;50.972;18.220;2022-08-19T02:26:29;11.90;;;10.90;;
57291;SDS011;43144;50.972;18.220;2022-08-19T02:28:59;11.70;;;10.70;;
57291;SDS011;43144;50.972;18.220;2022-08-19T02:31:28;12.20;;;11.10;;
57291;SDS011;43144;50.972;18.220;2022-08-19T02:33:56;11.40;;;10.20;;
57291;SDS011;43144;50.972;18.220;2022-08-19T02:36:25;11.00;;;10.00;;
57291;SDS011;43144;50.972;18.220;2022-08-19T02:38:53;11.30;;;10.40;;
57291;SDS011;43144;50.972;18.220;2022-08-19T02:41:23;12.20;;;11.00;;
57291;SDS011;43144;50.972;18.220;2022-08-19T02:43:52;12.20;;;11.10;;
57291;SDS011;43144;50.972;18.220;2022-08-19T02:46:22;11.60;;;10.70;;
57291;SDS011;43144;50.972;18.220;2022-08-19T02:48:53;11.60;;;10.60;;
57291;SDS011;43144;50.972;18.220;2022-08-19T02:51:26;12.20;;;11.00;;
57291;SDS011;43144;50.972;18.220;2022-08-19T02:53:55;15.00;;;10.70;;
57291;SDS011;43144;50.972;18.220;2022-08-19T02:56:23;12.20;;;11.20;;
57291;SDS011;43144;50.972;18.220;2022-08-19T02:58:52;11.70;;;10.70;;
57291;SDS011;43144;50.972;18.220;2022-08-19T03:01:22;11.60;;;10.70;;
57291;SDS011;43144;50.972;18.220;2022-08-19T03:03:52;11.60;;;10.60;;
57291;SDS011;43144;50.972;18.220;2022-08-19T03:06:20;11.80;;;10.90;;
57291;SDS011;43144;50.972;18.220;2022-08-19T03:08:49;12.60;;;11.60;;
57291;SDS011;43144;50.972;18.220;2022-08-19T03:11:17;13.00;;;11.90;;
57291;SDS011;43144;50.972;18.220;2022-08-19T03:13:47;11.80;;;10.80;;
57291;SDS011;43144;50.972;18.220;2022-08-19T03:16:16;11.70;;;10.70;;
57291;SDS011;43144;50.972;18.220;2022-08-19T03:18:45;11.80;;;10.80;;
57291;SDS011;43144;50.972;18.220;2022-08-19T03:21:16;12.30;;;11.20;;
57291;SDS011;43144;50.972;18.220;2022-08-19T03:23:46;12.80;;;11.50;;
57291;SDS011;43144;50.972;18.220;2022-08-19T03:26:14;12.90;;;11.80;;
57291;SDS011;43144;50.972;18.220;2022-08-19T03:28:42;12.30;;;11.10;;
57291;SDS011;43144;50.972;18.220;2022-08-19T03:31:12;11.90;;;11.00;;
57291;SDS011;43144;50.972;18.220;2022-08-19T03:33:41;13.20;;;11.80;;
57291;SDS011;43144;50.972;18.220;2022-08-19T03:36:10;13.10;;;12.00;;
57291;SDS011;43144;50.972;18.220;2022-08-19T03:38:39;13.00;;;11.90;;
57291;SDS011;43144;50.972;18.220;2022-08-19T03:41:10;12.60;;;11.60;;
57291;SDS011;43144;50.972;18.220;2022-08-19T03:43:40;12.60;;;11.40;;
57291;SDS011;43144;50.972;18.220;2022-08-19T03:46:12;12.40;;;11.30;;
57291;SDS011;43144;50.972;18.220;2022-08-19T03:48:42;13.00;;;11.90;;
57291;SDS011;43144;50.972;18.220;2022-08-19T03:51:16;13.60;;;12.30;;
57291;SDS011;43144;50.972;18.220;2022-08-19T03:53:46;12.90;;;11.50;;
57291;SDS011;43144;50.972;18.220;2022-08-19T03:56:15;12.70;;;11.60;;
57291;SDS011;43144;50.972;18.220;2022-08-19T03:58:43;12.30;;;11.40;;
57291;SDS011;43144;50.972;18.220;2022-08-19T04:01:13;13.00;;;11.80;;
57291;SDS011;43144;50.972;18.220;2022-08-19T04:03:42;12.70;;;11.60;;
57291;SDS011;43144;50.972;18.220;2022-08-19T04:06:11;13.00;;;11.80;;
57291;SDS011;43144;50.972;18.220;2022-08-19T04:08:42;12.50;;;11.40;;
57291;SDS011;43144;50.972;18.220;2022-08-19T04:11:12;13.10;;;11.80;;
57291;SDS011;43144;50.972;18.220;2022-08-19T04:13:42;12.80;;;11.60;;
57291;SDS011;43144;50.972;18.220;2022-08-19T04:16:10;13.20;;;12.00;;
57291;SDS011;43144;50.972;18.220;2022-08-19T04:18:39;12.60;;;11.50;;
57291;SDS011;43144;50.972;18.220;2022-08-19T04:21:08;12.60;;;11.50;;
57291;SDS011;43144;50.972;18.220;2022-08-19T04:23:44;13.10;;;11.80;;
57291;SDS011;43144;50.972;18.220;2022-08-19T04:26:13;12.90;;;11.80;;
57291;SDS011;43144;50.972;18.220;2022-08-19T04:28:42;12.70;;;11.70;;
57291;SDS011;43144;50.972;18.220;2022-08-19T04:31:14;12.50;;;11.40;;
57291;SDS011;43144;50.972;18.220;2022-08-19T04:33:44;13.00;;;11.70;;
57291;SDS011;43144;50.972;18.220;2022-08-19T04:36:16;12.90;;;11.70;;
57291;SDS011;43144;50.972;18.220;2022-08-19T04:38:46;13.10;;;12.10;;
57291;SDS011;43144;50.972;18.220;2022-08-19T04:41:15;12.80;;;11.70;;
57291;SDS011;43144;50.972;18.220;2022-08-19T04:43:44;12.20;;;11.20;;
57291;SDS011;43144;50.972;18.220;2022-08-19T04:46:12;12.10;;;11.10;;
57291;SDS011;43144;50.972;18.220;2022-08-19T04:48:40;11.90;;;10.90;;
57291;SDS011;43144;50.972;18.220;2022-08-19T04:51:10;12.40;;;11.40;;
57291;SDS011;43144;50.972;18.220;2022-08-19T04:53:39;13.30;;;12.10;;
57291;SDS011;43144;50.972;18.220;2022-08-19T04:56:09;12.80;;;11.60;;
57291;SDS011;43144;50.972;18.220;2022-08-19T04:58:38;17.60;;;12.80;;
57291;SDS011;43144;50.972;18.220;2022-08-19T05:01:08;12.80;;;11.60;;
57291;SDS011;43144;50.972;18.220;2022-08-19T05:03:38;12.80;;;11.50;;
57291;SDS011;43144;50.972;18.220;2022-08-19T05:06:06;12.80;;;11.80;;
57291;SDS011;43144;50.972;18.220;2022-08-19T05:08:37;13.40;;;12.20;;
57291;SDS011;43144;50.972;18.220;2022-08-19T05:11:09;12.80;;;11.80;;
57291;SDS011;43144;50.972;18.220;2022-08-19T05:13:38;13.30;;;12.20;;
57291;SDS011;43144;50.972;18.220;2022-08-19T05:16:06;13.10;;;12.00;;
57291;SDS011;43144;50.972;18.220;2022-08-19T05:18:35;14.70;;;12.00;;
57291;SDS011;43144;50.972;18.220;2022-08-19T05:21:06;13.40;;;12.20;;
57291;SDS011;43144;50.972;18.220;2022-08-19T05:23:34;12.90;;;11.70;;
57291;SDS011;43144;50.972;18.220;2022-08-19T05:26:03;12.30;;;11.30;;
57291;SDS011;43144;50.972;18.220;2022-08-19T05:28:31;13.40;;;12.20;;
57291;SDS011;43144;50.972;18.220;2022-08-19T05:30:59;12.80;;;11.70;;
57291;SDS011;43144;50.972;18.220;2022-08-19T05:33:28;12.10;;;11.10;;
57291;SDS011;43144;50.972;18.220;2022-08-19T05:35:56;13.80;;;12.50;;
57291;SDS011;43144;50.972;18.220;2022-08-19T05:38:24;12.10;;;11.00;;
57291;SDS011;43144;50.972;18.220;2022-08-19T05:40:52;13.00;;;11.40;;
57291;SDS011;43144;50.972;18.220;2022-08-19T05:43:20;12.70;;;11.50;;
57291;SDS011;43144;50.972;18.220;2022-08-19T05:45:49;12.40;;;11.10;;
57291;SDS011;43144;50.972;18.220;2022-08-19T05:48:17;11.90;;;10.80;;
57291;SDS011;43144;50.972;18.220;2022-08-19T05:50:45;11.60;;;10.40;;
57291;SDS011;43144;50.972;18.220;2022-08-19T05:53:14;18.00;;;11.20;;
57291;SDS011;43144;50.972;18.220;2022-08-19T05:55:42;12.40;;;11.10;;
57291;SDS011;43144;50.972;18.220;2022-08-19T05:58:10;12.30;;;11.10;;
57291;SDS011;43144;50.972;18.220;2022-08-19T06:00:38;13.00;;;10.80;;
57291;SDS011;43144;50.972;18.220;2022-08-19T06:03:08;11.30;;;10.20;;
57291;SDS011;43144;50.972;18.220;2022-08-19T06:05:36;12.60;;;11.60;;
57291;SDS011;43144;50.972;18.220;2022-08-19T06:08:05;12.70;;;11.20;;
57291;SDS011;43144;50.972;18.220;2022-08-19T06:10:34;17.70;;;14.60;;
57291;SDS011;43144;50.972;18.220;2022-08-19T06:13:02;12.80;;;11.50;;
57291;SDS011;43144;50.972;18.220;2022-08-19T06:15:30;11.60;;;10.30;;
57291;SDS011;43144;50.972;18.220;2022-08-19T06:17:58;11.00;;;10.00;;
57291;SDS011;43144;50.972;18.220;2022-08-19T06:20:26;12.10;;;10.90;;
57291;SDS011;43144;50.972;18.220;2022-08-19T06:22:55;11.50;;;10.50;;
57291;SDS011;43144;50.972;18.220;2022-08-19T06:25:23;12.10;;;9.60;;
57291;SDS011;43144;50.972;18.220;2022-08-19T06:27:51;13.60;;;11.00;;
57291;SDS011;43144;50.972;18.220;2022-08-19T06:30:19;11.00;;;10.00;;
57291;SDS011;43144;50.972;18.220;2022-08-19T06:32:48;11.40;;;10.30;;
57291;SDS011;43144;50.972;18.220;2022-08-19T06:35:16;10.50;;;9.20;;
57291;SDS011;43144;50.972;18.220;2022-08-19T06:37:44;13.60;;;9.60;;
57291;SDS011;43144;50.972;18.220;2022-08-19T06:40:13;13.80;;;12.50;;
57291;SDS011;43144;50.972;18.220;2022-08-19T06:42:41;11.40;;;9.90;;
57291;SDS011;43144;50.972;18.220;2022-08-19T06:45:09;10.60;;;9.60;;
57291;SDS011;43144;50.972;18.220;2022-08-19T06:47:38;9.90;;;8.90;;
57291;SDS011;43144;50.972;18.220;2022-08-19T06:50:06;12.20;;;8.80;;
57291;SDS011;43144;50.972;18.220;2022-08-19T06:52:35;11.40;;;10.20;;
57291;SDS011;43144;50.972;18.220;2022-08-19T06:55:04;11.50;;;10.40;;
57291;SDS011;43144;50.972;18.220;2022-08-19T06:57:32;10.20;;;9.20;;
57291;SDS011;43144;50.972;18.220;2022-08-19T07:00:01;10.00;;;8.40;;
57291;SDS011;43144;50.972;18.220;2022-08-19T07:02:32;11.00;;;9.00;;
57291;SDS011;43144;50.972;18.220;2022-08-19T07:05:00;9.60;;;8.50;;
57291;SDS011;43144;50.972;18.220;2022-08-19T07:07:29;11.40;;;8.50;;
57291;SDS011;43144;50.972;18.220;2022-08-19T07:09:57;9.90;;;8.70;;
57291;SDS011;43144;50.972;18.220;2022-08-19T07:12:25;9.40;;;8.60;;
57291;SDS011;43144;50.972;18.220;2022-08-19T07:14:54;11.20;;;8.10;;
57291;SDS011;43144;50.972;18.220;2022-08-19T07:17:22;9.20;;;8.20;;
57291;SDS011;43144;50.972;18.220;2022-08-19T07:19:51;8.60;;;7.70;;
57291;SDS011;43144;50.972;18.220;2022-08-19T07:22:20;10.20;;;8.40;;
57291;SDS011;43144;50.972;18.220;2022-08-19T07:24:48;9.90;;;8.40;;
57291;SDS011;43144;50.972;18.220;2022-08-19T07:27:16;9.70;;;8.30;;
57291;SDS011;43144;50.972;18.220;2022-08-19T07:29:45;11.60;;;7.80;;
57291;SDS011;43144;50.972;18.220;2022-08-19T07:32:14;8.70;;;7.50;;
57291;SDS011;43144;50.972;18.220;2022-08-19T07:34:42;8.30;;;7.20;;
57291;SDS011;43144;50.972;18.220;2022-08-19T07:37:10;10.80;;;7.60;;
57291;SDS011;43144;50.972;18.220;2022-08-19T07:39:39;11.30;;;7.90;;
57291;SDS011;43144;50.972;18.220;2022-08-19T07:42:08;14.70;;;8.20;;
57291;SDS011;43144;50.972;18.220;2022-08-19T07:44:37;13.60;;;7.10;;
57291;SDS011;43144;50.972;18.220;2022-08-19T07:47:06;9.20;;;7.40;;
57291;SDS011;43144;50.972;18.220;2022-08-19T07:49:34;13.80;;;7.50;;
57291;SDS011;43144;50.972;18.220;2022-08-19T07:52:04;11.60;;;6.90;;
57291;SDS011;43144;50.972;18.220;2022-08-19T07:54:34;12.20;;;7.10;;
57291;SDS011;43144;50.972;18.220;2022-08-19T07:57:04;9.20;;;7.10;;
57291;SDS011;43144;50.972;18.220;2022-08-19T07:59:32;9.50;;;7.50;;
57291;SDS011;43144;50.972;18.220;2022-08-19T08:02:01;8.90;;;7.50;;
57291;SDS011;43144;50.972;18.220;2022-08-19T08:04:30;9.60;;;7.00;;
57291;SDS011;43144;50.972;18.220;2022-08-19T08:06:58;8.80;;;7.70;;
57291;SDS011;43144;50.972;18.220;2022-08-19T08:09:29;9.70;;;7.50;;
57291;SDS011;43144;50.972;18.220;2022-08-19T08:12:00;13.00;;;6.90;;
57291;SDS011;43144;50.972;18.220;2022-08-19T08:14:32;10.10;;;7.30;;
57291;SDS011;43144;50.972;18.220;2022-08-19T08:17:01;12.20;;;8.80;;
57291;SDS011;43144;50.972;18.220;2022-08-19T08:19:31;15.30;;;7.70;;
57291;SDS011;43144;50.972;18.220;2022-08-19T08:21:59;14.50;;;7.40;;
57291;SDS011;43144;50.972;18.220;2022-08-19T08:24:30;9.30;;;7.30;;
57291;SDS011;43144;50.972;18.220;2022-08-19T08:26:59;9.40;;;7.30;;
57291;SDS011;43144;50.972;18.220;2022-08-19T08:29:29;11.50;;;7.40;;
57291;SDS011;43144;50.972;18.220;2022-08-19T08:31:57;11.10;;;7.50;;
57291;SDS011;43144;50.972;18.220;2022-08-19T08:34:26;11.70;;;7.40;;
57291;SDS011;43144;50.972;18.220;2022-08-19T08:36:54;14.70;;;7.10;;
57291;SDS011;43144;50.972;18.220;2022-08-19T08:39:22;9.10;;;6.90;;
57291;SDS011;43144;50.972;18.220;2022-08-19T08:41:53;13.10;;;7.70;;
57291;SDS011;43144;50.972;18.220;2022-08-19T08:44:27;25.50;;;16.10;;
57291;SDS011;43144;50.972;18.220;2022-08-19T08:46:59;16.90;;;11.00;;
57291;SDS011;43144;50.972;18.220;2022-08-19T08:49:31;10.30;;;6.60;;
57291;SDS011;43144;50.972;18.220;2022-08-19T08:52:04;10.70;;;6.80;;
57291;SDS011;43144;50.972;18.220;2022-08-19T08:54:35;11.40;;;6.60;;
57291;SDS011;43144;50.972;18.220;2022-08-19T08:57:07;10.80;;;6.90;;
57291;SDS011;43144;50.972;18.220;2022-08-19T08:59:41;12.30;;;5.90;;
57291;SDS011;43144;50.972;18.220;2022-08-19T09:02:11;11.30;;;6.40;;
57291;SDS011;43144;50.972;18.220;2022-08-19T09:04:40;14.40;;;5.90;;
57291;SDS011;43144;50.972;18.220;2022-08-19T09:07:13;12.80;;;5.60;;
57291;SDS011;43144;50.972;18.220;2022-08-19T09:09:48;12.50;;;6.20;;
57291;SDS011;43144;50.972;18.220;2022-08-19T09:12:19;8.80;;;5.10;;
57291;SDS011;43144;50.972;18.220;2022-08-19T09:14:53;16.30;;;6.00;;
57291;SDS011;43144;50.972;18.220;2022-08-19T09:17:24;9.60;;;6.20;;
57291;SDS011;43144;50.972;18.220;2022-08-19T09:19:54;8.80;;;5.50;;
57291;SDS011;43144;50.972;18.220;2022-08-19T09:22:23;9.30;;;5.30;;
57291;SDS011;43144;50.972;18.220;2022-08-19T09:24:51;12.50;;;6.70;;
57291;SDS011;43144;50.972;18.220;2022-08-19T09:27:21;12.40;;;5.80;;
57291;SDS011;43144;50.972;18.220;2022-08-19T09:29:50;17.00;;;6.20;;
57291;SDS011;43144;50.972;18.220;2022-08-19T09:32:19;13.80;;;6.20;;
57291;SDS011;43144;50.972;18.220;2022-08-19T09:34:47;10.80;;;5.70;;
57291;SDS011;43144;50.972;18.220;2022-08-19T09:37:16;12.30;;;5.40;;
57291;SDS011;43144;50.972;18.220;2022-08-19T09:39:44;10.80;;;5.60;;
57291;SDS011;43144;50.972;18.220;2022-08-19T09:42:12;12.10;;;5.90;;
57291;SDS011;43144;50.972;18.220;2022-08-19T09:44:41;9.20;;;5.20;;
57291;SDS011;43144;50.972;18.220;2022-08-19T09:47:10;8.40;;;5.10;;
57291;SDS011;43144;50.972;18.220;2022-08-19T09:49:39;14.40;;;5.60;;
57291;SDS011;43144;50.972;18.220;2022-08-19T09:52:09;14.60;;;5.90;;
57291;SDS011;43144;50.972;18.220;2022-08-19T09:54:38;8.80;;;5.50;;
57291;SDS011;43144;50.972;18.220;2022-08-19T09:57:06;14.60;;;5.70;;
57291;SDS011;43144;50.972;18.220;2022-08-19T09:59:34;10.30;;;6.30;;
57291;SDS011;43144;50.972;18.220;2022-08-19T10:02:02;10.30;;;5.90;;
57291;SDS011;43144;50.972;18.220;2022-08-19T10:04:31;11.90;;;6.40;;
57291;SDS011;43144;50.972;18.220;2022-08-19T10:06:59;12.00;;;6.80;;
57291;SDS011;43144;50.972;18.220;2022-08-19T10:09:27;10.90;;;7.50;;
57291;SDS011;43144;50.972;18.220;2022-08-19T10:11:55;18.50;;;6.90;;
57291;SDS011;43144;50.972;18.220;2022-08-19T10:14:24;12.70;;;7.30;;
57291;SDS011;43144;50.972;18.220;2022-08-19T10:16:52;13.30;;;6.60;;
57291;SDS011;43144;50.972;18.220;2022-08-19T10:19:20;10.90;;;6.00;;
57291;SDS011;43144;50.972;18.220;2022-08-19T10:21:48;11.00;;;6.20;;
57291;SDS011;43144;50.972;18.220;2022-08-19T10:24:16;10.50;;;5.70;;
57291;SDS011;43144;50.972;18.220;2022-08-19T10:26:44;11.10;;;6.60;;
57291;SDS011;43144;50.972;18.220;2022-08-19T10:29:12;9.80;;;6.10;;
57291;SDS011;43144;50.972;18.220;2022-08-19T10:31:41;9.60;;;5.60;;
57291;SDS011;43144;50.972;18.220;2022-08-19T10:34:09;7.40;;;5.10;;
57291;SDS011;43144;50.972;18.220;2022-08-19T10:36:37;14.10;;;5.80;;
57291;SDS011;43144;50.972;18.220;2022-08-19T10:39:06;9.60;;;6.00;;
57291;SDS011;43144;50.972;18.220;2022-08-19T10:41:36;12.90;;;6.10;;
57291;SDS011;43144;50.972;18.220;2022-08-19T10:44:06;13.50;;;5.40;;
57291;SDS011;43144;50.972;18.220;2022-08-19T10:46:37;12.80;;;5.60;;
57291;SDS011;43144;50.972;18.220;2022-08-19T10:49:09;10.40;;;5.10;;
57291;SDS011;43144;50.972;18.220;2022-08-19T10:51:38;10.30;;;5.50;;
57291;SDS011;43144;50.972;18.220;2022-08-19T10:54:08;11.50;;;5.80;;
57291;SDS011;43144;50.972;18.220;2022-08-19T10:56:36;11.60;;;5.70;;
57291;SDS011;43144;50.972;18.220;2022-08-19T10:59:04;15.10;;;6.60;;
57291;SDS011;43144;50.972;18.220;2022-08-19T11:01:33;12.90;;;5.80;;
57291;SDS011;43144;50.972;18.220;2022-08-19T11:04:02;8.10;;;5.70;;
57291;SDS011;43144;50.972;18.220;2022-08-19T11:06:32;16.50;;;6.10;;
57291;SDS011;43144;50.972;18.220;2022-08-19T11:09:00;8.60;;;5.60;;
57291;SDS011;43144;50.972;18.220;2022-08-19T11:11:29;10.30;;;6.70;;
57291;SDS011;43144;50.972;18.220;2022-08-19T11:13:57;11.60;;;6.40;;
57291;SDS011;43144;50.972;18.220;2022-08-19T11:16:26;15.80;;;8.20;;
57291;SDS011;43144;50.972;18.220;2022-08-19T11:18:54;10.90;;;6.70;;
57291;SDS011;43144;50.972;18.220;2022-08-19T11:21:26;11.20;;;6.20;;
57291;SDS011;43144;50.972;18.220;2022-08-19T11:23:56;7.80;;;5.60;;
57291;SDS011;43144;50.972;18.220;2022-08-19T11:26:26;15.80;;;6.60;;
57291;SDS011;43144;50.972;18.220;2022-08-19T11:28:55;11.60;;;5.70;;
57291;SDS011;43144;50.972;18.220;2022-08-19T11:31:25;13.30;;;6.50;;
57291;SDS011;43144;50.972;18.220;2022-08-19T11:33:56;11.20;;;6.40;;
57291;SDS011;43144;50.972;18.220;2022-08-19T11:36:26;11.10;;;6.00;;
57291;SDS011;43144;50.972;18.220;2022-08-19T11:38:55;12.20;;;6.40;;
57291;SDS011;43144;50.972;18.220;2022-08-19T11:41:23;11.70;;;6.50;;
57291;SDS011;43144;50.972;18.220;2022-08-19T11:43:52;16.80;;;8.20;;
57291;SDS011;43144;50.972;18.220;2022-08-19T11:46:21;15.10;;;7.20;;
57291;SDS011;43144;50.972;18.220;2022-08-19T11:48:51;11.90;;;6.70;;
57291;SDS011;43144;50.972;18.220;2022-08-19T11:51:20;14.60;;;7.90;;
57291;SDS011;43144;50.972;18.220;2022-08-19T11:53:50;15.20;;;6.60;;
57291;SDS011;43144;50.972;18.220;2022-08-19T11:56:19;11.40;;;6.40;;
57291;SDS011;43144;50.972;18.220;2022-08-19T11:58:48;22.90;;;8.60;;
57291;SDS011;43144;50.972;18.220;2022-08-19T12:01:17;11.50;;;6.50;;
57291;SDS011;43144;50.972;18.220;2022-08-19T12:03:48;12.30;;;7.00;;
57291;SDS011;43144;50.972;18.220;2022-08-19T12:06:19;11.30;;;6.90;;
57291;SDS011;43144;50.972;18.220;2022-08-19T12:08:48;10.40;;;6.80;;
57291;SDS011;43144;50.972;18.220;2022-08-19T12:11:16;10.50;;;6.80;;
57291;SDS011;43144;50.972;18.220;2022-08-19T12:13:45;12.20;;;7.30;;
57291;SDS011;43144;50.972;18.220;2022-08-19T12:16:14;12.20;;;7.40;;
57291;SDS011;43144;50.972;18.220;2022-08-19T12:18:43;9.90;;;7.30;;
57291;SDS011;43144;50.972;18.220;2022-08-19T12:21:12;11.10;;;6.90;;
57291;SDS011;43144;50.972;18.220;2022-08-19T12:23:41;11.40;;;7.10;;
57291;SDS011;43144;50.972;18.220;2022-08-19T12:26:10;13.10;;;6.70;;
57291;SDS011;43144;50.972;18.220;2022-08-19T12:28:38;12.40;;;6.40;;
57291;SDS011;43144;50.972;18.220;2022-08-19T12:31:07;12.40;;;7.40;;
57291;SDS011;43144;50.972;18.220;2022-08-19T12:33:36;11.80;;;7.00;;
57291;SDS011;43144;50.972;18.220;2022-08-19T12:36:05;14.00;;;6.30;;
57291;SDS011;43144;50.972;18.220;2022-08-19T12:38:36;12.90;;;6.50;;
57291;SDS011;43144;50.972;18.220;2022-08-19T12:41:05;12.20;;;6.50;;
57291;SDS011;43144;50.972;18.220;2022-08-19T12:43:35;9.60;;;6.70;;
57291;SDS011;43144;50.972;18.220;2022-08-19T12:46:04;11.00;;;6.50;;
57291;SDS011;43144;50.972;18.220;2022-08-19T12:48:33;11.40;;;6.10;;
57291;SDS011;43144;50.972;18.220;2022-08-19T12:51:05;11.90;;;6.50;;
57291;SDS011;43144;50.972;18.220;2022-08-19T12:53:34;10.80;;;6.10;;
57291;SDS011;43144;50.972;18.220;2022-08-19T12:56:03;14.10;;;6.80;;
57291;SDS011;43144;50.972;18.220;2022-08-19T12:58:32;12.90;;;6.50;;
57291;SDS011;43144;50.972;18.220;2022-08-19T13:01:00;9.50;;;6.10;;
57291;SDS011;43144;50.972;18.220;2022-08-19T13:03:34;10.80;;;6.50;;
57291;SDS011;43144;50.972;18.220;2022-08-19T13:06:02;16.30;;;8.80;;
57291;SDS011;43144;50.972;18.220;2022-08-19T13:08:30;12.50;;;6.70;;
57291;SDS011;43144;50.972;18.220;2022-08-19T13:10:59;12.00;;;6.10;;
57291;SDS011;43144;50.972;18.220;2022-08-19T13:13:35;8.70;;;6.30;;
57291;SDS011;43144;50.972;18.220;2022-08-19T13:16:03;9.90;;;6.30;;
57291;SDS011;43144;50.972;18.220;2022-08-19T13:18:31;9.20;;;6.00;;
57291;SDS011;43144;50.972;18.220;2022-08-19T13:21:02;9.90;;;6.90;;
57291;SDS011;43144;50.972;18.220;2022-08-19T13:23:31;8.60;;;6.20;;
57291;SDS011;43144;50.972;18.220;2022-08-19T13:26:01;7.50;;;6.30;;
57291;SDS011;43144;50.972;18.220;2022-08-19T13:28:31;9.50;;;6.50;;
57291;SDS011;43144;50.972;18.220;2022-08-19T13:30:59;9.60;;;6.50;;
57291;SDS011;43144;50.972;18.220;2022-08-19T13:33:27;9.10;;;6.60;;
57291;SDS011;43144;50.972;18.220;2022-08-19T13:35:57;8.60;;;6.70;;
57291;SDS011;43144;50.972;18.220;2022-08-19T13:38:27;9.20;;;6.70;;
57291;SDS011;43144;50.972;18.220;2022-08-19T13:40:55;8.80;;;6.40;;
57291;SDS011;43144;50.972;18.220;2022-08-19T13:43:25;12.80;;;6.40;;
57291;SDS011;43144;50.972;18.220;2022-08-19T13:45:54;8.80;;;6.30;;
57291;SDS011;43144;50.972;18.220;2022-08-19T13:48:22;11.50;;;6.40;;
57291;SDS011;43144;50.972;18.220;2022-08-19T13:50:51;12.10;;;5.80;;
57291;SDS011;43144;50.972;18.220;2022-08-19T13:53:19;15.80;;;5.80;;
57291;SDS011;43144;50.972;18.220;2022-08-19T13:55:47;8.00;;;5.80;;
57291;SDS011;43144;50.972;18.220;2022-08-19T13:58:16;10.30;;;6.20;;
57291;SDS011;43144;50.972;18.220;2022-08-19T14:00:45;11.50;;;6.50;;
57291;SDS011;43144;50.972;18.220;2022-08-19T14:03:13;10.70;;;6.60;;
57291;SDS011;43144;50.972;18.220;2022-08-19T14:05:42;12.00;;;6.40;;
57291;SDS011;43144;50.972;18.220;2022-08-19T14:08:10;8.30;;;6.40;;
57291;SDS011;43144;50.972;18.220;2022-08-19T14:10:38;12.50;;;6.20;;
57291;SDS011;43144;50.972;18.220;2022-08-19T14:13:06;16.80;;;7.40;;
57291;SDS011;43144;50.972;18.220;2022-08-19T14:15:35;8.90;;;6.20;;
57291;SDS011;43144;50.972;18.220;2022-08-19T14:18:03;13.00;;;6.50;;
57291;SDS011;43144;50.972;18.220;2022-08-19T14:20:31;7.80;;;6.20;;
57291;SDS011;43144;50.972;18.220;2022-08-19T14:23:02;10.70;;;6.50;;
57291;SDS011;43144;50.972;18.220;2022-08-19T14:25:31;12.60;;;6.30;;
57291;SDS011;43144;50.972;18.220;2022-08-19T14:28:00;12.00;;;6.70;;
57291;SDS011;43144;50.972;18.220;2022-08-19T14:30:29;15.40;;;6.70;;